Schedule Details


Flight Number: CTN477
Departure: Charles-de-gaulle (LFPG) at 18:50
Arrival: Cilipi (LDDU) at 21:05
Route: LANVI UN491 BEGAR UQ341 RESIA Q333 BABAG N606 PEVAL UN606 SPL UL607 NERRA

Weather Information
LFPG 221530Z 19009KT 9999 SCT010 BKN120 17/15 Q1009 NOSIG
LDDU 221530Z 17006KT 130V200 CAVOK 21/12 Q1019 NOSIG
Schedule Frequency

Route Map